createdAt,value
2023-12-05T00:00:07.714Z,417.00
2023-12-05T00:01:07.728Z,418.00
2023-12-05T00:02:07.717Z,420.00
2023-12-05T00:03:07.803Z,415.00
2023-12-05T00:04:07.762Z,418.00
2023-12-05T00:05:07.823Z,421.00
2023-12-05T00:06:07.623Z,418.00
2023-12-05T00:07:07.776Z,415.00
2023-12-05T00:08:07.588Z,415.00
2023-12-05T00:09:07.638Z,418.00
2023-12-05T00:10:07.558Z,419.00
2023-12-05T00:11:07.647Z,418.00
2023-12-05T00:12:07.547Z,420.00
2023-12-05T00:13:07.605Z,423.00
2023-12-05T00:14:07.524Z,423.00
2023-12-05T00:15:07.630Z,424.00
2023-12-05T00:16:09.445Z,424.00
2023-12-05T00:17:07.497Z,424.00
2023-12-05T00:18:07.494Z,422.00
2023-12-05T00:19:07.642Z,421.00
2023-12-05T00:20:07.447Z,420.00
2023-12-05T00:21:07.516Z,417.00
2023-12-05T00:22:07.404Z,421.00
2023-12-05T00:23:07.432Z,419.00
2023-12-05T00:24:07.424Z,416.00
2023-12-05T00:25:07.504Z,417.00
2023-12-05T00:26:07.353Z,417.00
2023-12-05T00:27:07.826Z,421.00
2023-12-05T00:28:07.351Z,419.00
2023-12-05T00:29:07.370Z,416.00
2023-12-05T00:30:07.301Z,419.00
2023-12-05T00:31:07.338Z,422.00
2023-12-05T00:32:07.288Z,418.00
2023-12-05T00:33:07.403Z,415.00
2023-12-05T00:34:07.369Z,420.00
2023-12-05T00:35:07.305Z,419.00
2023-12-05T00:36:07.219Z,416.00
2023-12-05T00:37:09.326Z,418.00
2023-12-05T00:38:07.212Z,417.00
2023-12-05T00:39:07.245Z,417.00
2023-12-05T00:40:07.177Z,419.00
2023-12-05T00:41:07.250Z,419.00
2023-12-05T00:42:07.157Z,418.00
2023-12-05T00:43:07.208Z,423.00
2023-12-05T00:44:07.120Z,425.00
2023-12-05T00:45:07.172Z,418.00
2023-12-05T00:46:07.092Z,419.00
2023-12-05T00:47:07.235Z,418.00
2023-12-05T00:48:07.168Z,415.00
2023-12-05T00:49:07.245Z,414.00
2023-12-05T00:50:07.050Z,414.00
2023-12-05T00:51:07.192Z,416.00
2023-12-05T00:52:07.027Z,418.00
2023-12-05T00:53:07.045Z,417.00
2023-12-05T00:54:06.995Z,419.00
2023-12-05T00:55:07.095Z,419.00
2023-12-05T00:56:06.955Z,417.00
2023-12-05T00:57:07.109Z,416.00
2023-12-05T00:58:06.932Z,422.00
2023-12-05T00:59:06.970Z,417.00
2023-12-05T01:00:06.909Z,415.00
2023-12-05T01:01:06.938Z,417.00
2023-12-05T01:02:06.979Z,415.00
2023-12-05T01:03:06.912Z,421.00
2023-12-05T01:04:06.991Z,416.00
2023-12-05T01:05:41.362Z,414.00
2023-12-05T01:06:21.173Z,414.00
2023-12-05T01:07:06.950Z,416.00
2023-12-05T01:08:08.247Z,420.00
2023-12-05T01:09:06.923Z,414.00
2023-12-05T01:10:07.017Z,420.00
2023-12-05T01:11:06.797Z,415.00
2023-12-05T01:12:06.793Z,408.00
2023-12-05T01:13:06.782Z,420.00
2023-12-05T01:14:07.853Z,414.00
2023-12-05T01:15:06.709Z,416.00
2023-12-05T01:16:06.792Z,414.00
2023-12-05T01:17:06.685Z,417.00
2023-12-05T01:18:06.766Z,415.00
2023-12-05T01:19:06.747Z,418.00
2023-12-05T01:20:06.716Z,414.00
2023-12-05T01:21:06.623Z,416.00
2023-12-05T01:22:06.633Z,416.00
2023-12-05T01:23:06.598Z,415.00
2023-12-05T01:24:06.656Z,414.00
2023-12-05T01:25:06.650Z,418.00
2023-12-05T01:26:06.654Z,415.00
2023-12-05T01:27:06.553Z,417.00
2023-12-05T01:28:07.589Z,419.00
2023-12-05T01:29:06.501Z,419.00
2023-12-05T01:30:06.582Z,419.00
2023-12-05T01:31:06.519Z,420.00
2023-12-05T01:32:06.501Z,421.00
2023-12-05T01:33:06.512Z,418.00
2023-12-05T01:34:06.631Z,421.00
2023-12-05T01:35:06.442Z,424.00
2023-12-05T01:36:06.526Z,420.00
2023-12-05T01:37:06.441Z,421.00
2023-12-05T01:38:06.452Z,420.00
2023-12-05T01:39:06.394Z,421.00
2023-12-05T01:40:06.449Z,422.00
2023-12-05T01:41:06.361Z,423.00
2023-12-05T01:42:06.360Z,423.00
2023-12-05T01:43:06.350Z,421.00
2023-12-05T01:44:06.394Z,421.00
2023-12-05T01:45:06.315Z,419.00
2023-12-05T01:46:06.399Z,419.00
2023-12-05T01:47:06.287Z,416.00
2023-12-05T01:48:06.367Z,419.00
2023-12-05T01:49:11.211Z,422.00
2023-12-05T01:50:07.324Z,421.00
2023-12-05T01:51:06.325Z,420.00
2023-12-05T01:52:06.225Z,420.00
2023-12-05T01:53:06.255Z,422.00
2023-12-05T01:54:06.251Z,422.00
2023-12-05T01:55:06.308Z,420.00
2023-12-05T01:56:06.238Z,420.00
2023-12-05T01:57:06.160Z,418.00
2023-12-05T01:58:06.181Z,416.00
2023-12-05T01:59:27.168Z,416.00
2023-12-05T02:00:06.111Z,418.00
2023-12-05T02:01:06.216Z,417.00
2023-12-05T02:02:06.147Z,417.00
2023-12-05T02:03:06.377Z,415.00
2023-12-05T02:04:06.281Z,415.00
2023-12-05T02:05:06.465Z,413.00
2023-12-05T02:06:06.072Z,413.00
2023-12-05T02:07:06.131Z,410.00
2023-12-05T02:08:06.013Z,411.00
2023-12-05T02:09:06.117Z,412.00
2023-12-05T02:10:05.972Z,411.00
2023-12-05T02:11:06.064Z,411.00
2023-12-05T02:12:05.948Z,410.00
2023-12-05T02:13:06.022Z,413.00
2023-12-05T02:14:05.922Z,413.00
2023-12-05T02:15:06.008Z,413.00
2023-12-05T02:16:05.917Z,413.00
2023-12-05T02:17:05.899Z,412.00
2023-12-05T02:18:05.967Z,413.00
2023-12-05T02:19:06.024Z,411.00
2023-12-05T02:20:05.840Z,412.00
2023-12-05T02:21:05.923Z,413.00
2023-12-05T02:22:05.822Z,415.00
2023-12-05T02:23:05.841Z,416.00
2023-12-05T02:24:05.790Z,417.00
2023-12-05T02:25:05.913Z,417.00
2023-12-05T02:26:05.762Z,417.00
2023-12-05T02:27:05.763Z,417.00
2023-12-05T02:28:05.732Z,420.00
2023-12-05T02:29:05.784Z,419.00
2023-12-05T02:30:05.727Z,416.00
2023-12-05T02:31:05.747Z,416.00
2023-12-05T02:32:05.688Z,415.00
2023-12-05T02:33:05.804Z,416.00
2023-12-05T02:34:05.713Z,414.00
2023-12-05T02:35:05.717Z,412.00
2023-12-05T02:36:05.627Z,414.00
2023-12-05T02:37:05.709Z,412.00
2023-12-05T02:38:05.605Z,414.00
2023-12-05T02:39:05.647Z,413.00
2023-12-05T02:40:05.583Z,414.00
2023-12-05T02:41:05.667Z,415.00
2023-12-05T02:42:05.549Z,415.00
2023-12-05T02:43:05.631Z,415.00
2023-12-05T02:44:05.537Z,413.00
2023-12-05T02:45:05.606Z,412.00
2023-12-05T02:46:09.208Z,410.00
2023-12-05T02:47:05.502Z,412.00
2023-12-05T02:48:05.570Z,411.00
2023-12-05T02:49:05.637Z,411.00
2023-12-05T02:50:05.535Z,410.00
2023-12-05T02:51:05.444Z,411.00
2023-12-05T02:52:05.488Z,413.00
2023-12-05T02:53:05.413Z,413.00
2023-12-05T02:54:05.457Z,412.00
2023-12-05T02:55:05.426Z,416.00
2023-12-05T02:56:05.469Z,414.00
2023-12-05T02:57:05.354Z,412.00
2023-12-05T02:58:05.381Z,408.00
2023-12-05T02:59:05.340Z,410.00
2023-12-05T03:00:05.405Z,410.00
2023-12-05T03:01:05.330Z,408.00
2023-12-05T03:02:05.356Z,407.00
2023-12-05T03:03:05.310Z,409.00
2023-12-05T03:04:05.390Z,409.00
2023-12-05T03:05:05.285Z,409.00
2023-12-05T03:06:05.382Z,410.00
2023-12-05T03:07:05.291Z,414.00
2023-12-05T03:08:05.250Z,416.00
2023-12-05T03:09:05.215Z,414.00
2023-12-05T03:10:05.264Z,416.00
2023-12-05T03:11:09.599Z,418.00
2023-12-05T03:12:06.269Z,418.00
2023-12-05T03:13:05.204Z,415.00
2023-12-05T03:14:05.160Z,417.00
2023-12-05T03:15:26.193Z,417.00
2023-12-05T03:16:05.103Z,416.00
2023-12-05T03:17:05.142Z,414.00
2023-12-05T03:18:05.606Z,415.00
2023-12-05T03:19:05.251Z,415.00
2023-12-05T03:20:05.054Z,417.00
2023-12-05T03:21:05.145Z,418.00
2023-12-05T03:22:05.040Z,418.00
2023-12-05T03:23:05.050Z,418.00
2023-12-05T03:24:05.093Z,417.00
2023-12-05T03:25:05.079Z,416.00
2023-12-05T03:26:04.971Z,416.00
2023-12-05T03:27:05.090Z,413.00
2023-12-05T03:28:04.944Z,409.00
2023-12-05T03:29:04.996Z,413.00
2023-12-05T03:30:04.942Z,417.00
2023-12-05T03:31:05.006Z,415.00
2023-12-05T03:32:04.910Z,415.00
2023-12-05T03:33:05.000Z,415.00
2023-12-05T03:34:04.948Z,415.00
2023-12-05T03:35:04.931Z,416.00
2023-12-05T03:36:04.862Z,416.00
2023-12-05T03:37:04.949Z,416.00
2023-12-05T03:38:04.816Z,416.00
2023-12-05T03:39:04.878Z,418.00
2023-12-05T03:40:04.795Z,417.00
2023-12-05T03:41:04.880Z,417.00
2023-12-05T03:42:04.793Z,421.00
2023-12-05T03:43:04.811Z,419.00
2023-12-05T03:44:04.738Z,419.00
2023-12-05T03:45:04.805Z,421.00
2023-12-05T03:46:04.713Z,418.00
2023-12-05T03:47:04.718Z,415.00
2023-12-05T03:48:04.770Z,418.00
2023-12-05T03:49:04.832Z,422.00
2023-12-05T03:50:04.666Z,421.00
2023-12-05T03:51:04.742Z,419.00
2023-12-05T03:52:04.638Z,417.00
2023-12-05T03:53:04.659Z,417.00
2023-12-05T03:54:04.638Z,414.00
2023-12-05T03:55:04.675Z,413.00
2023-12-05T03:56:04.583Z,414.00
2023-12-05T03:57:04.663Z,417.00
2023-12-05T03:58:04.551Z,416.00
2023-12-05T03:59:04.589Z,418.00
2023-12-05T04:00:04.567Z,420.00
2023-12-05T04:01:04.630Z,421.00
2023-12-05T04:02:04.530Z,423.00
2023-12-05T04:03:04.565Z,421.00
2023-12-05T04:04:04.583Z,419.00
2023-12-05T04:05:04.812Z,419.00
2023-12-05T04:06:04.602Z,421.00
2023-12-05T04:07:04.503Z,421.00
2023-12-05T04:08:04.434Z,420.00
2023-12-05T04:09:04.468Z,422.00
2023-12-05T04:10:04.404Z,421.00
2023-12-05T04:11:04.491Z,421.00
2023-12-05T04:12:04.385Z,419.00
2023-12-05T04:13:04.386Z,419.00
2023-12-05T04:14:04.352Z,418.00
2023-12-05T04:15:04.405Z,418.00
2023-12-05T04:16:04.315Z,417.00
2023-12-05T04:17:04.424Z,416.00
2023-12-05T04:18:04.438Z,420.00
2023-12-05T04:19:04.415Z,419.00
2023-12-05T04:20:04.263Z,419.00
2023-12-05T04:21:04.347Z,419.00
2023-12-05T04:22:04.244Z,417.00
2023-12-05T04:23:04.265Z,413.00
2023-12-05T04:24:04.242Z,413.00
2023-12-05T04:25:05.303Z,415.00
2023-12-05T04:26:04.188Z,416.00
2023-12-05T04:27:04.191Z,420.00
2023-12-05T04:28:04.164Z,420.00
2023-12-05T04:29:05.223Z,421.00
2023-12-05T04:30:04.149Z,419.00
2023-12-05T04:31:04.251Z,420.00
2023-12-05T04:32:04.105Z,419.00
2023-12-05T04:33:04.147Z,422.00
2023-12-05T04:34:04.184Z,422.00
2023-12-05T04:35:04.149Z,423.00
2023-12-05T04:36:04.098Z,423.00
2023-12-05T04:37:04.054Z,420.00
2023-12-05T04:38:04.039Z,422.00
2023-12-05T04:39:04.069Z,421.00
2023-12-05T04:40:04.000Z,425.00
2023-12-05T04:41:04.086Z,423.00
2023-12-05T04:42:03.996Z,428.00
2023-12-05T04:43:04.117Z,425.00
2023-12-05T04:44:03.929Z,426.00
2023-12-05T04:45:04.016Z,423.00
2023-12-05T04:46:04.020Z,422.00
2023-12-05T04:47:06.033Z,422.00
2023-12-05T04:48:04.083Z,421.00
2023-12-05T04:49:04.042Z,422.00
2023-12-05T04:50:03.923Z,421.00
2023-12-05T04:51:03.955Z,422.00
2023-12-05T04:52:03.919Z,421.00
2023-12-05T04:53:03.857Z,421.00
2023-12-05T04:54:03.830Z,420.00
2023-12-05T04:55:03.925Z,421.00
2023-12-05T04:56:03.786Z,421.00
2023-12-05T04:57:24.908Z,421.00
2023-12-05T04:58:03.784Z,421.00
2023-12-05T04:59:03.800Z,423.00
2023-12-05T05:00:03.772Z,423.00
2023-12-05T05:01:03.884Z,425.00
2023-12-05T05:02:03.761Z,424.00
2023-12-05T05:03:03.901Z,424.00
2023-12-05T05:04:04.757Z,423.00
2023-12-05T05:05:03.994Z,423.00
2023-12-05T05:06:03.760Z,423.00
2023-12-05T05:07:03.792Z,421.00
2023-12-05T05:08:03.644Z,425.00
2023-12-05T05:09:03.682Z,426.00
2023-12-05T05:10:03.649Z,426.00
2023-12-05T05:11:03.704Z,424.00
2023-12-05T05:12:03.609Z,423.00
2023-12-05T05:13:03.614Z,424.00
2023-12-05T05:14:05.431Z,427.00
2023-12-05T05:15:03.667Z,426.00
2023-12-05T05:16:03.576Z,427.00
2023-12-05T05:17:03.532Z,427.00
2023-12-05T05:18:03.599Z,428.00
2023-12-05T05:19:03.666Z,429.00
2023-12-05T05:20:03.470Z,430.00
2023-12-05T05:21:03.553Z,432.00
2023-12-05T05:22:03.511Z,430.00
2023-12-05T05:23:03.543Z,433.00
2023-12-05T05:24:03.473Z,430.00
2023-12-05T05:25:03.600Z,430.00
2023-12-05T05:26:03.416Z,430.00
2023-12-05T05:27:03.517Z,429.00
2023-12-05T05:28:03.379Z,430.00
2023-12-05T05:29:04.561Z,427.00
2023-12-05T05:30:03.398Z,424.00
2023-12-05T05:31:03.423Z,421.00
2023-12-05T05:32:03.371Z,424.00
2023-12-05T05:33:03.480Z,423.00
2023-12-05T05:34:03.307Z,425.00
2023-12-05T05:35:03.369Z,430.00
2023-12-05T05:36:03.283Z,427.00
2023-12-05T05:37:03.293Z,423.00
2023-12-05T05:38:03.237Z,420.00
2023-12-05T05:39:26.404Z,421.00
2023-12-05T05:40:03.269Z,421.00
2023-12-05T05:41:03.283Z,424.00
2023-12-05T05:42:03.205Z,425.00
2023-12-05T05:43:03.219Z,424.00
2023-12-05T05:44:03.169Z,424.00
2023-12-05T05:45:03.206Z,426.00
2023-12-05T05:46:03.265Z,424.00
2023-12-05T05:47:03.230Z,424.00
2023-12-05T05:48:03.212Z,422.00
2023-12-05T05:49:03.308Z,424.00
2023-12-05T05:50:03.382Z,425.00
2023-12-05T05:51:03.166Z,421.00
2023-12-05T05:52:03.050Z,422.00
2023-12-05T05:53:03.079Z,422.00
2023-12-05T05:54:03.093Z,425.00
2023-12-05T05:55:03.258Z,425.00
2023-12-05T05:56:03.095Z,424.00
2023-12-05T05:57:03.020Z,421.00
2023-12-05T05:58:03.054Z,420.00
2023-12-05T05:59:04.040Z,421.00
2023-12-05T06:00:02.978Z,419.00
2023-12-05T06:01:03.044Z,421.00
2023-12-05T06:02:03.098Z,420.00
2023-12-05T06:03:03.128Z,420.00
2023-12-05T06:04:03.043Z,419.00
2023-12-05T06:05:03.149Z,419.00
2023-12-05T06:06:03.088Z,419.00
2023-12-05T06:07:03.010Z,421.00
2023-12-05T06:08:02.879Z,419.00
2023-12-05T06:09:02.918Z,418.00
2023-12-05T06:10:02.897Z,418.00
2023-12-05T06:11:03.036Z,416.00
2023-12-05T06:12:03.002Z,416.00
2023-12-05T06:13:03.078Z,417.00
2023-12-05T06:14:02.883Z,420.00
2023-12-05T06:15:02.851Z,417.00
2023-12-05T06:16:02.745Z,420.00
2023-12-05T06:17:02.842Z,420.00
2023-12-05T06:18:02.800Z,423.00
2023-12-05T06:19:02.863Z,426.00
2023-12-05T06:20:02.698Z,428.00
2023-12-05T06:21:02.778Z,427.00
2023-12-05T06:22:02.678Z,428.00
2023-12-05T06:23:02.675Z,428.00
2023-12-05T06:24:02.871Z,427.00
2023-12-05T06:25:02.698Z,426.00
2023-12-05T06:26:02.613Z,426.00
2023-12-05T06:27:02.748Z,425.00
2023-12-05T06:28:02.589Z,420.00
2023-12-05T06:29:02.646Z,420.00
2023-12-05T06:30:09.834Z,420.00
2023-12-05T06:31:03.583Z,418.00
2023-12-05T06:32:02.654Z,417.00
2023-12-05T06:33:02.584Z,416.00
2023-12-05T06:34:02.597Z,417.00
2023-12-05T06:35:02.509Z,415.00
2023-12-05T06:36:02.514Z,414.00
2023-12-05T06:37:02.459Z,413.00
2023-12-05T06:38:02.490Z,414.00
2023-12-05T06:39:02.470Z,413.00
2023-12-05T06:40:02.506Z,413.00
2023-12-05T06:41:02.394Z,412.00
2023-12-05T06:42:02.450Z,415.00
2023-12-05T06:43:02.382Z,416.00
2023-12-05T06:44:02.431Z,418.00
2023-12-05T06:45:02.354Z,417.00
2023-12-05T06:46:02.441Z,417.00
2023-12-05T06:47:02.344Z,416.00
2023-12-05T06:48:03.832Z,418.00
2023-12-05T06:49:02.353Z,420.00
2023-12-05T06:50:02.374Z,421.00
2023-12-05T06:51:02.288Z,418.00
2023-12-05T06:52:04.398Z,417.00
2023-12-05T06:53:02.255Z,420.00
2023-12-05T06:54:02.364Z,421.00
2023-12-05T06:55:02.237Z,420.00
2023-12-05T06:56:02.333Z,421.00
2023-12-05T06:57:02.199Z,418.00
2023-12-05T06:58:03.242Z,417.00
2023-12-05T06:59:02.255Z,417.00
2023-12-05T07:00:02.300Z,418.00
2023-12-05T07:01:02.144Z,422.00
2023-12-05T07:02:02.279Z,422.00
2023-12-05T07:03:02.128Z,423.00
2023-12-05T07:04:03.276Z,419.00
2023-12-05T07:05:02.273Z,422.00
2023-12-05T07:06:02.279Z,423.00
2023-12-05T07:07:02.857Z,421.00
2023-12-05T07:08:02.094Z,424.00
2023-12-05T07:09:02.064Z,423.00
2023-12-05T07:10:02.111Z,422.00
2023-12-05T07:11:02.018Z,419.00
2023-12-05T07:12:02.091Z,419.00
2023-12-05T07:13:02.014Z,420.00
2023-12-05T07:14:02.056Z,419.00
2023-12-05T07:15:02.049Z,417.00
2023-12-05T07:16:02.042Z,418.00
2023-12-05T07:17:01.940Z,421.00
2023-12-05T07:18:02.110Z,421.00
2023-12-05T07:19:01.964Z,421.00
2023-12-05T07:20:01.965Z,420.00
2023-12-05T07:21:01.880Z,420.00
2023-12-05T07:22:01.985Z,421.00
2023-12-05T07:23:01.980Z,421.00
2023-12-05T07:24:01.963Z,420.00
2023-12-05T07:25:01.996Z,423.00
2023-12-05T07:26:02.947Z,426.00
2023-12-05T07:27:01.811Z,426.00
2023-12-05T07:28:01.823Z,427.00
2023-12-05T07:29:01.774Z,426.00
2023-12-05T07:30:02.915Z,425.00
2023-12-05T07:31:01.878Z,423.00
2023-12-05T07:32:02.795Z,420.00
2023-12-05T07:33:01.804Z,421.00
2023-12-05T07:34:01.871Z,420.00
2023-12-05T07:35:01.846Z,421.00
2023-12-05T07:36:01.722Z,421.00
2023-12-05T07:37:01.721Z,423.00
2023-12-05T07:38:01.684Z,421.00
2023-12-05T07:39:01.643Z,420.00
2023-12-05T07:40:01.704Z,423.00
2023-12-05T07:41:01.619Z,426.00
2023-12-05T07:42:01.687Z,424.00
2023-12-05T07:43:01.588Z,425.00
2023-12-05T07:44:01.635Z,422.00
2023-12-05T07:45:01.564Z,423.00
2023-12-05T07:46:01.644Z,426.00
2023-12-05T07:47:01.532Z,423.00
2023-12-05T07:48:01.667Z,423.00
2023-12-05T07:49:01.575Z,425.00
2023-12-05T07:50:01.631Z,423.00
2023-12-05T07:51:01.520Z,421.00
2023-12-05T07:52:01.508Z,416.00
2023-12-05T07:53:01.507Z,419.00
2023-12-05T07:54:01.765Z,418.00
2023-12-05T07:55:01.449Z,420.00
2023-12-05T07:56:01.530Z,422.00
2023-12-05T07:57:01.477Z,422.00
2023-12-05T07:58:22.417Z,422.00
2023-12-05T07:59:01.385Z,423.00
2023-12-05T08:00:01.493Z,422.00
2023-12-05T08:01:01.373Z,423.00
2023-12-05T08:02:02.282Z,423.00
2023-12-05T08:03:01.367Z,423.00
2023-12-05T08:04:01.508Z,422.00
2023-12-05T08:05:01.519Z,420.00
2023-12-05T08:06:02.466Z,421.00
2023-12-05T08:07:01.280Z,417.00
2023-12-05T08:08:01.299Z,418.00
2023-12-05T08:09:01.276Z,419.00
2023-12-05T08:10:01.319Z,417.00
2023-12-05T08:11:01.237Z,416.00
2023-12-05T08:12:01.277Z,413.00
2023-12-05T08:13:01.222Z,412.00
2023-12-05T08:14:02.374Z,411.00
2023-12-05T08:15:01.215Z,412.00
2023-12-05T08:16:02.298Z,413.00
2023-12-05T08:17:01.136Z,413.00
2023-12-05T08:18:01.318Z,413.00
2023-12-05T08:19:01.236Z,417.00
2023-12-05T08:20:02.194Z,415.00
2023-12-05T08:21:01.094Z,415.00
2023-12-05T08:22:01.120Z,417.00
2023-12-05T08:23:01.105Z,415.00
2023-12-05T08:24:01.107Z,415.00
2023-12-05T08:25:01.106Z,417.00
2023-12-05T08:26:01.019Z,417.00
2023-12-05T08:27:01.120Z,420.00
2023-12-05T08:28:00.991Z,418.00
2023-12-05T08:29:01.046Z,419.00
2023-12-05T08:30:01.012Z,418.00
2023-12-05T08:31:01.084Z,417.00
2023-12-05T08:32:00.935Z,418.00
2023-12-05T08:33:00.995Z,417.00
2023-12-05T08:34:01.031Z,418.00
2023-12-05T08:35:01.136Z,416.00
2023-12-05T08:36:01.216Z,418.00
2023-12-05T08:37:00.994Z,415.00
2023-12-05T08:38:00.865Z,413.00
2023-12-05T08:39:00.901Z,415.00
2023-12-05T08:40:00.839Z,415.00
2023-12-05T08:41:00.928Z,416.00
2023-12-05T08:42:00.944Z,419.00
2023-12-05T08:43:00.826Z,418.00
2023-12-05T08:44:00.779Z,420.00
2023-12-05T08:45:00.872Z,419.00
2023-12-05T08:46:00.769Z,419.00
2023-12-05T08:47:00.892Z,420.00
2023-12-05T08:48:00.943Z,419.00
2023-12-05T08:49:02.916Z,420.00
2023-12-05T08:50:00.716Z,417.00
2023-12-05T08:51:00.823Z,418.00
2023-12-05T08:52:00.674Z,420.00
2023-12-05T08:53:00.700Z,419.00
2023-12-05T08:54:00.693Z,417.00
2023-12-05T08:55:00.754Z,418.00
2023-12-05T08:56:00.621Z,418.00
2023-12-05T08:57:00.668Z,426.00
2023-12-05T08:58:00.608Z,423.00
2023-12-05T08:59:00.670Z,420.00
2023-12-05T09:00:00.604Z,417.00
2023-12-05T09:01:00.646Z,418.00
2023-12-05T09:02:00.668Z,419.00
2023-12-05T09:03:00.578Z,418.00
2023-12-05T09:04:00.648Z,413.00
2023-12-05T09:05:00.700Z,420.00
2023-12-05T09:06:00.575Z,418.00
2023-12-05T09:07:00.693Z,419.00
2023-12-05T09:08:00.642Z,415.00
2023-12-05T09:09:00.499Z,415.00
2023-12-05T09:10:00.489Z,414.00
2023-12-05T09:11:00.534Z,415.00
2023-12-05T09:12:00.455Z,415.00
2023-12-05T09:13:00.551Z,416.00
2023-12-05T09:14:00.414Z,415.00
2023-12-05T09:15:00.580Z,415.00
2023-12-05T09:16:00.470Z,416.00
2023-12-05T09:17:00.773Z,414.00
2023-12-05T09:18:00.450Z,416.00
2023-12-05T09:19:01.591Z,422.00
2023-12-05T09:20:00.345Z,415.00
2023-12-05T09:21:01.386Z,414.00
2023-12-05T09:22:00.413Z,414.00
2023-12-05T09:23:01.842Z,417.00
2023-12-05T09:24:00.288Z,416.00
2023-12-05T09:25:01.457Z,418.00
2023-12-05T09:26:00.243Z,417.00
2023-12-05T09:27:00.281Z,416.00
2023-12-05T09:28:00.321Z,415.00
2023-12-05T09:29:00.406Z,413.00
2023-12-05T09:30:00.273Z,413.00
2023-12-05T09:31:00.295Z,414.00
2023-12-05T09:32:00.184Z,415.00
2023-12-05T09:33:00.260Z,416.00
2023-12-05T09:34:00.281Z,417.00
2023-12-05T09:35:00.609Z,416.00
2023-12-05T09:36:00.189Z,415.00
2023-12-05T09:37:00.203Z,413.00
2023-12-05T09:38:00.062Z,412.00
2023-12-05T09:39:00.121Z,412.00
2023-12-05T09:40:00.111Z,415.00
2023-12-05T09:41:00.126Z,418.00
2023-12-05T09:42:00.145Z,414.00
2023-12-05T09:43:00.119Z,417.00
2023-12-05T09:43:59.980Z,415.00
2023-12-05T09:45:00.092Z,414.00
2023-12-05T09:46:00.035Z,407.00
2023-12-05T09:47:00.095Z,412.00
2023-12-05T09:48:00.041Z,412.00
2023-12-05T09:49:00.097Z,414.00
2023-12-05T09:50:00.110Z,415.00
2023-12-05T09:50:59.999Z,415.00
2023-12-05T09:51:59.923Z,416.00
2023-12-05T09:52:59.913Z,417.00
2023-12-05T09:53:59.856Z,417.00
2023-12-05T09:54:59.950Z,418.00
2023-12-05T09:55:59.829Z,418.00
2023-12-05T09:56:59.858Z,418.00
2023-12-05T09:57:59.890Z,420.00
2023-12-05T09:58:59.854Z,418.00
2023-12-05T09:59:59.811Z,420.00
2023-12-05T10:00:59.866Z,420.00
2023-12-05T10:01:59.921Z,422.00
2023-12-05T10:02:59.788Z,422.00
2023-12-05T10:03:59.810Z,421.00
2023-12-05T10:04:59.867Z,418.00
2023-12-05T10:05:59.806Z,418.00
2023-12-05T10:06:59.749Z,414.00
2023-12-05T10:07:59.682Z,415.00
2023-12-05T10:08:59.720Z,415.00
2023-12-05T10:09:59.690Z,415.00
2023-12-05T10:10:59.774Z,415.00
2023-12-05T10:11:59.638Z,417.00
2023-12-05T10:12:59.686Z,419.00
2023-12-05T10:13:59.606Z,420.00
2023-12-05T10:14:59.654Z,417.00
2023-12-05T10:15:59.702Z,416.00
2023-12-05T10:17:00.600Z,416.00
2023-12-05T10:17:59.642Z,414.00
2023-12-05T10:18:59.769Z,416.00
2023-12-05T10:19:59.546Z,420.00
2023-12-05T10:20:59.665Z,420.00
2023-12-05T10:21:59.570Z,419.00
2023-12-05T10:22:59.541Z,419.00
2023-12-05T10:23:59.516Z,417.00
2023-12-05T10:24:59.651Z,415.00
2023-12-05T10:25:59.450Z,414.00
2023-12-05T10:26:59.436Z,415.00
2023-12-05T10:27:59.461Z,413.00
2023-12-05T10:28:59.458Z,412.00
2023-12-05T10:29:59.405Z,413.00
2023-12-05T10:30:59.513Z,415.00
2023-12-05T10:31:59.354Z,414.00
2023-12-05T10:32:59.484Z,416.00
2023-12-05T10:33:59.404Z,416.00
2023-12-05T10:34:59.419Z,414.00
2023-12-05T10:35:59.327Z,415.00
2023-12-05T10:36:59.336Z,415.00
2023-12-05T10:37:59.293Z,416.00
2023-12-05T10:38:59.321Z,417.00
2023-12-05T10:39:59.334Z,418.00
2023-12-05T10:40:59.343Z,418.00
2023-12-05T10:41:59.245Z,417.00
2023-12-05T10:42:59.266Z,418.00
2023-12-05T10:43:59.204Z,416.00
2023-12-05T10:44:59.359Z,417.00
2023-12-05T10:45:59.248Z,415.00
2023-12-05T10:46:59.172Z,414.00
2023-12-05T10:47:59.203Z,411.00
2023-12-05T10:48:59.280Z,410.00
2023-12-05T10:49:59.126Z,410.00
2023-12-05T10:50:59.235Z,414.00
2023-12-05T10:51:59.107Z,414.00
2023-12-05T10:52:59.117Z,415.00
2023-12-05T10:53:59.085Z,417.00
2023-12-05T10:54:59.393Z,413.00
2023-12-05T10:55:59.057Z,412.00
2023-12-05T10:56:59.093Z,415.00
2023-12-05T10:57:59.070Z,416.00
2023-12-05T10:58:59.060Z,416.00
2023-12-05T10:59:59.028Z,415.00
2023-12-05T11:00:59.093Z,415.00
2023-12-05T11:01:59.059Z,416.00
2023-12-05T11:02:59.006Z,416.00
2023-12-05T11:03:59.017Z,416.00
2023-12-05T11:04:59.005Z,416.00
2023-12-05T11:06:00.662Z,415.00
2023-12-05T11:06:58.972Z,419.00
2023-12-05T11:07:58.902Z,418.00
2023-12-05T11:08:59.663Z,419.00
2023-12-05T11:10:02.880Z,419.00
2023-12-05T11:10:58.846Z,415.00
2023-12-05T11:12:01.715Z,417.00
2023-12-05T11:12:58.972Z,418.00
2023-12-05T11:13:58.866Z,416.00
2023-12-05T11:14:58.805Z,415.00
2023-12-05T11:15:58.974Z,414.00
2023-12-05T11:16:58.785Z,416.00
2023-12-05T11:18:01.082Z,416.00
2023-12-05T11:18:58.862Z,416.00
2023-12-05T11:19:58.799Z,416.00
2023-12-05T11:20:58.725Z,416.00
2023-12-05T11:21:58.740Z,416.00
2023-12-05T11:22:58.682Z,417.00
2023-12-05T11:23:58.794Z,416.00
2023-12-05T11:24:58.696Z,419.00
2023-12-05T11:25:58.766Z,419.00
2023-12-05T11:26:59.028Z,419.00
2023-12-05T11:27:58.775Z,420.00
2023-12-05T11:28:58.648Z,423.00
2023-12-05T11:29:58.723Z,427.00
2023-12-05T11:30:58.650Z,424.00
2023-12-05T11:31:58.684Z,423.00
2023-12-05T11:32:58.712Z,423.00
2023-12-05T11:33:58.840Z,420.00
2023-12-05T11:34:58.664Z,421.00
2023-12-05T11:35:58.567Z,424.00
2023-12-05T11:36:58.584Z,421.00
2023-12-05T11:37:58.527Z,420.00
2023-12-05T11:38:58.509Z,423.00
2023-12-05T11:39:58.605Z,420.00
2023-12-05T11:40:58.472Z,421.00
2023-12-05T11:41:58.492Z,421.00
2023-12-05T11:42:58.457Z,420.00
2023-12-05T11:43:58.474Z,426.00
2023-12-05T11:44:58.398Z,421.00
2023-12-05T11:45:58.492Z,420.00
2023-12-05T11:46:58.387Z,417.00
2023-12-05T11:47:58.521Z,419.00
2023-12-05T11:48:58.485Z,416.00
2023-12-05T11:50:19.393Z,417.00
2023-12-05T11:50:58.320Z,416.00
2023-12-05T11:51:58.323Z,416.00
2023-12-05T11:52:58.303Z,416.00
2023-12-05T11:53:58.404Z,415.00
2023-12-05T11:55:01.161Z,416.00
2023-12-05T11:55:59.259Z,419.00
2023-12-05T11:57:58.252Z,422.00
2023-12-05T11:58:58.262Z,423.00
2023-12-05T11:59:58.212Z,422.00
2023-12-05T12:01:00.175Z,421.00
2023-12-05T12:01:58.183Z,421.00
2023-12-05T12:02:58.218Z,422.00
2023-12-05T12:03:58.176Z,416.00
2023-12-05T12:04:58.287Z,415.00
2023-12-05T12:05:58.194Z,417.00
2023-12-05T12:07:01.625Z,415.00
2023-12-05T12:07:58.422Z,417.00
2023-12-05T12:08:58.130Z,414.00
2023-12-05T12:09:58.187Z,414.00
2023-12-05T12:10:59.028Z,416.00
2023-12-05T12:11:58.050Z,415.00
2023-12-05T12:13:01.075Z,415.00
2023-12-05T12:13:58.019Z,417.00
2023-12-05T12:14:58.066Z,420.00
2023-12-05T12:15:58.010Z,421.00
2023-12-05T12:16:58.089Z,419.00
2023-12-05T12:17:58.061Z,420.00
2023-12-05T12:18:58.174Z,419.00
2023-12-05T12:19:58.015Z,421.00
2023-12-05T12:20:58.150Z,420.00
2023-12-05T12:21:57.937Z,419.00
2023-12-05T12:22:57.938Z,418.00
2023-12-05T12:23:57.903Z,417.00
2023-12-05T12:24:58.120Z,416.00
2023-12-05T12:25:57.857Z,416.00
2023-12-05T12:26:58.001Z,413.00
2023-12-05T12:27:57.859Z,412.00
2023-12-05T12:28:59.516Z,413.00